createdAt,value
2022-12-31T00:00:21.778Z,12.97
2022-12-31T00:05:24.223Z,12.97
2022-12-31T00:10:26.105Z,13.07
2022-12-31T00:15:28.103Z,13.02
2022-12-31T00:20:30.337Z,13.00
2022-12-31T00:25:34.250Z,13.06
2022-12-31T00:30:36.082Z,13.23
2022-12-31T00:35:37.915Z,13.31
2022-12-31T00:40:39.755Z,13.45
2022-12-31T00:45:41.571Z,13.45
2022-12-31T00:50:43.404Z,13.43
2022-12-31T00:55:45.278Z,13.57
2022-12-31T01:00:47.167Z,13.67
2022-12-31T01:05:50.521Z,13.73
2022-12-31T01:11:10.978Z,13.87
2022-12-31T01:16:14.446Z,13.92
2022-12-31T01:21:16.881Z,14.05
2022-12-31T01:26:19.353Z,14.12
2022-12-31T01:31:23.403Z,14.22
2022-12-31T01:36:28.007Z,14.30
2022-12-31T01:41:38.934Z,14.35
2022-12-31T01:47:02.331Z,14.39
2022-12-31T01:52:13.422Z,14.44
2022-12-31T01:57:16.268Z,14.50
2022-12-31T02:02:18.343Z,14.56
2022-12-31T02:07:20.312Z,14.60
2022-12-31T02:12:22.407Z,14.64
2022-12-31T02:18:18.472Z,14.72
2022-12-31T02:23:46.413Z,14.77
2022-12-31T02:28:55.383Z,14.81
2022-12-31T02:34:03.017Z,14.86
2022-12-31T02:39:07.609Z,14.94
2022-12-31T02:44:40.098Z,15.07
2022-12-31T02:50:03.499Z,15.22
2022-12-31T02:55:29.849Z,15.29
2022-12-31T03:00:53.467Z,15.26
2022-12-31T03:05:56.999Z,15.28
2022-12-31T03:10:58.797Z,15.34
2022-12-31T03:16:00.652Z,15.37
2022-12-31T03:21:21.375Z,15.47
2022-12-31T03:26:23.174Z,15.48
2022-12-31T03:31:25.030Z,15.52
2022-12-31T03:36:26.986Z,15.61
2022-12-31T03:41:28.795Z,15.57
2022-12-31T03:46:30.674Z,15.59
2022-12-31T03:51:32.478Z,15.64
2022-12-31T03:56:34.285Z,15.68
2022-12-31T04:01:36.187Z,15.74
2022-12-31T04:06:38.176Z,15.82
2022-12-31T04:11:40.024Z,15.87
2022-12-31T04:16:41.904Z,15.89
2022-12-31T04:21:43.744Z,15.89
2022-12-31T04:26:45.645Z,15.93
2022-12-31T04:31:47.517Z,15.97
2022-12-31T04:36:49.444Z,16.00
2022-12-31T04:41:52.007Z,16.07
2022-12-31T04:46:53.903Z,16.10
2022-12-31T04:51:55.856Z,16.19
2022-12-31T04:56:57.795Z,16.15
2022-12-31T05:01:59.948Z,16.06
2022-12-31T05:07:01.993Z,16.03
2022-12-31T05:12:04.079Z,16.04
2022-12-31T05:17:05.892Z,16.04
2022-12-31T05:22:26.431Z,16.05
2022-12-31T05:27:31.324Z,16.11
2022-12-31T05:32:34.179Z,16.16
2022-12-31T05:37:36.182Z,16.17
2022-12-31T05:42:38.649Z,16.27
2022-12-31T05:47:41.135Z,16.39
2022-12-31T05:52:47.370Z,16.53
2022-12-31T05:57:49.744Z,16.60
2022-12-31T06:02:51.633Z,16.66
2022-12-31T06:07:53.532Z,16.68
2022-12-31T06:12:55.611Z,16.67
2022-12-31T06:17:57.477Z,16.61
2022-12-31T06:22:59.972Z,16.57
2022-12-31T06:28:01.818Z,16.56
2022-12-31T06:33:03.745Z,16.51
2022-12-31T06:38:05.568Z,16.52
2022-12-31T06:43:07.412Z,16.55
2022-12-31T06:48:09.289Z,16.53
2022-12-31T06:53:11.476Z,16.53
2022-12-31T06:58:13.998Z,16.50
2022-12-31T07:03:39.905Z,16.51
2022-12-31T07:08:47.698Z,16.53
2022-12-31T07:13:55.161Z,16.59
2022-12-31T07:19:26.850Z,16.60
2022-12-31T07:24:28.999Z,16.62
2022-12-31T07:29:33.425Z,16.63
2022-12-31T07:34:40.925Z,16.67
2022-12-31T07:40:04.120Z,16.70
2022-12-31T07:45:24.420Z,16.77
2022-12-31T07:50:26.629Z,16.85
2022-12-31T07:55:28.558Z,16.97
2022-12-31T08:00:31.459Z,17.17
2022-12-31T08:05:49.792Z,17.23
2022-12-31T08:10:54.537Z,17.31
2022-12-31T08:15:56.711Z,17.43
2022-12-31T08:21:35.351Z,17.56
2022-12-31T08:26:57.363Z,17.70
2022-12-31T08:32:20.667Z,17.79
2022-12-31T08:37:56.038Z,17.87
2022-12-31T08:42:57.848Z,17.99
2022-12-31T08:48:37.035Z,18.10
2022-12-31T08:53:39.117Z,18.13
2022-12-31T08:58:55.913Z,18.22
2022-12-31T09:04:16.059Z,18.29
2022-12-31T09:09:33.121Z,18.36
2022-12-31T09:14:53.997Z,18.50
2022-12-31T09:19:55.781Z,18.59
2022-12-31T09:24:58.338Z,18.72
2022-12-31T09:30:11.531Z,18.83
2022-12-31T09:35:29.105Z,18.82
2022-12-31T09:41:03.412Z,18.77
2022-12-31T09:46:41.956Z,18.77
2022-12-31T09:52:11.241Z,18.74
2022-12-31T09:57:15.874Z,18.78
2022-12-31T10:02:55.298Z,18.85
2022-12-31T10:08:07.367Z,18.90
2022-12-31T10:13:22.397Z,18.94
2022-12-31T10:19:21.607Z,18.99
2022-12-31T10:24:41.436Z,19.00
2022-12-31T10:29:48.889Z,19.09
2022-12-31T10:35:23.646Z,19.15
2022-12-31T10:40:37.715Z,19.15
2022-12-31T10:46:01.390Z,18.93
2022-12-31T10:51:40.139Z,19.12
2022-12-31T10:56:44.679Z,19.19
2022-12-31T11:02:13.569Z,19.24
2022-12-31T11:07:41.359Z,19.28
2022-12-31T11:12:51.995Z,19.29
2022-12-31T11:17:56.663Z,19.29
2022-12-31T11:23:13.588Z,19.30
2022-12-31T11:28:40.423Z,19.36
2022-12-31T11:33:59.536Z,19.41
2022-12-31T11:39:34.359Z,19.47
2022-12-31T11:44:49.254Z,19.50
2022-12-31T11:50:15.385Z,19.54
2022-12-31T11:55:34.568Z,19.64
2022-12-31T12:00:37.097Z,19.67
2022-12-31T12:05:40.369Z,19.76
2022-12-31T12:11:05.463Z,19.82
2022-12-31T12:16:08.685Z,19.83
2022-12-31T12:21:18.061Z,19.91
2022-12-31T12:26:30.247Z,20.05
2022-12-31T12:31:34.271Z,20.19
2022-12-31T12:36:47.051Z,20.28
2022-12-31T12:42:04.286Z,20.37
2022-12-31T12:47:08.406Z,20.34
2022-12-31T12:52:34.062Z,20.64
2022-12-31T12:57:58.866Z,20.51
2022-12-31T13:03:19.442Z,20.26
2022-12-31T13:08:53.328Z,20.20
2022-12-31T13:14:13.867Z,20.18
2022-12-31T13:19:34.566Z,20.20
2022-12-31T13:24:39.392Z,20.21
2022-12-31T13:29:44.587Z,20.06
2022-12-31T13:34:49.683Z,19.95
2022-12-31T13:40:01.874Z,19.87
2022-12-31T13:45:11.453Z,19.83
2022-12-31T13:50:17.841Z,19.82
2022-12-31T13:55:40.160Z,19.77
2022-12-31T14:00:54.235Z,19.72
2022-12-31T14:06:08.590Z,19.68
2022-12-31T14:11:41.500Z,19.67
2022-12-31T14:17:06.171Z,19.63
2022-12-31T14:22:22.622Z,19.62
2022-12-31T14:27:31.408Z,19.55
2022-12-31T14:32:55.066Z,19.51
2022-12-31T14:38:25.395Z,19.50
2022-12-31T14:43:48.819Z,19.43
2022-12-31T14:49:24.356Z,19.43
2022-12-31T14:54:36.288Z,19.44
2022-12-31T14:59:40.653Z,19.43
2022-12-31T15:04:46.323Z,19.41
2022-12-31T15:10:14.725Z,19.42
2022-12-31T15:15:33.134Z,19.37
2022-12-31T15:21:04.369Z,19.35
2022-12-31T15:26:06.748Z,19.32
2022-12-31T15:31:19.103Z,19.31
2022-12-31T15:36:24.179Z,19.25
2022-12-31T15:41:29.377Z,19.18
2022-12-31T15:46:37.113Z,19.20
2022-12-31T15:51:54.309Z,19.26
2022-12-31T15:56:56.317Z,19.26
2022-12-31T16:01:58.862Z,19.26
2022-12-31T16:07:03.137Z,19.23
2022-12-31T16:12:12.564Z,19.29
2022-12-31T16:17:35.378Z,19.28
2022-12-31T16:22:39.762Z,19.25
2022-12-31T16:27:41.645Z,19.22
2022-12-31T16:32:46.870Z,19.23
2022-12-31T16:37:49.697Z,19.22
2022-12-31T16:42:53.323Z,19.19
2022-12-31T16:47:55.507Z,19.15
2022-12-31T16:53:03.177Z,19.07
2022-12-31T16:58:30.615Z,19.16
2022-12-31T17:03:32.985Z,19.15
2022-12-31T17:08:55.951Z,19.20
2022-12-31T17:14:14.171Z,19.23
2022-12-31T17:19:31.405Z,19.31
2022-12-31T17:24:33.616Z,19.38
2022-12-31T17:29:35.775Z,19.37
2022-12-31T17:34:47.444Z,19.38
2022-12-31T17:39:54.976Z,19.40
2022-12-31T17:45:01.148Z,19.41
2022-12-31T17:50:32.678Z,19.42
2022-12-31T17:55:34.861Z,19.35
2022-12-31T18:00:37.280Z,19.32
2022-12-31T18:05:39.134Z,19.29
2022-12-31T18:10:42.993Z,19.24
2022-12-31T18:15:45.152Z,19.20
2022-12-31T18:20:49.044Z,19.17
2022-12-31T18:25:51.422Z,19.06
2022-12-31T18:30:53.383Z,19.15
2022-12-31T18:36:08.785Z,19.08
2022-12-31T18:41:38.226Z,19.06
2022-12-31T18:46:40.097Z,19.04
2022-12-31T18:51:41.947Z,19.05
2022-12-31T18:56:47.768Z,19.03
2022-12-31T19:01:52.361Z,19.02
2022-12-31T19:06:54.572Z,19.01
2022-12-31T19:11:56.483Z,19.00
2022-12-31T19:22:02.820Z,19.02
2022-12-31T19:27:04.884Z,19.01
2022-12-31T19:32:06.747Z,18.99
2022-12-31T19:37:14.810Z,19.01
2022-12-31T19:42:16.703Z,19.09
2022-12-31T19:47:18.589Z,19.25
2022-12-31T19:52:20.459Z,19.33
2022-12-31T19:57:22.293Z,19.40
2022-12-31T20:02:24.303Z,19.40
2022-12-31T20:07:27.357Z,19.42
2022-12-31T20:12:29.616Z,19.45
2022-12-31T20:17:31.513Z,19.44
2022-12-31T20:22:34.043Z,19.51
2022-12-31T20:27:36.272Z,19.51
2022-12-31T20:32:38.746Z,19.50
2022-12-31T20:37:40.610Z,19.50
2022-12-31T20:42:42.465Z,19.51
2022-12-31T20:47:44.305Z,19.54
2022-12-31T20:52:46.201Z,19.56
2022-12-31T20:57:48.105Z,19.52
2022-12-31T21:03:00.333Z,19.51
2022-12-31T21:08:05.965Z,19.53
2022-12-31T21:13:08.093Z,19.54
2022-12-31T21:18:10.497Z,19.52
2022-12-31T21:23:12.346Z,19.45
2022-12-31T21:28:14.269Z,19.44
2022-12-31T21:33:16.084Z,19.43
2022-12-31T21:38:18.390Z,19.46
2022-12-31T21:43:20.529Z,19.45
2022-12-31T21:48:23.492Z,19.46
2022-12-31T21:53:32.147Z,19.44
2022-12-31T21:59:12.312Z,19.49
2022-12-31T22:04:43.201Z,19.48
2022-12-31T22:09:35.978Z,19.44
2022-12-31T22:14:37.823Z,19.43
2022-12-31T22:20:01.058Z,19.40
2022-12-31T22:25:01.464Z,19.41
2022-12-31T22:30:03.471Z,19.39
2022-12-31T22:35:05.659Z,19.36
2022-12-31T22:40:08.232Z,19.36
2022-12-31T22:45:10.610Z,19.37
2022-12-31T22:50:12.458Z,19.39
2022-12-31T22:55:14.263Z,19.39
2022-12-31T23:00:16.147Z,19.35
2022-12-31T23:05:17.967Z,19.34
2022-12-31T23:10:38.233Z,19.36
2022-12-31T23:15:58.727Z,19.31
2022-12-31T23:21:19.420Z,19.34
2022-12-31T23:26:21.250Z,19.42
2022-12-31T23:31:25.896Z,19.44
2022-12-31T23:36:27.720Z,19.49
2022-12-31T23:41:29.575Z,19.41
2022-12-31T23:46:31.491Z,19.38
2022-12-31T23:51:33.619Z,19.37
2022-12-31T23:56:35.627Z,19.36
